Flight Track Log - Related Links

Times and Time Zones

All times are in EST time to prevent confusion due to time zone crossing. See the AFL150 flight status page for this flight to view local times or setup timezone preferences in your user account.

Time Position Orientation Groundspeed Altitude Reporting Facility
EST Latitude Longitude Course Direction KTS MPH feet Rate Location/Type
Sun 04:43:00 AM 56.1325 36.9377 307° West  Level Estimated
Sun 04:44:00 AM 56.2033 36.7651 306° West  Level Estimated
Sun 04:45:00 AM 56.2738 36.5918 306° West  Level Estimated
Sun 04:46:00 AM 56.3441 36.4180 306° West  Level Estimated
Sun 04:47:00 AM 56.4141 36.2435 306° West  Level Estimated
Sun 04:48:00 AM 56.4838 36.0683 306° West  Level Estimated
Sun 04:49:00 AM 56.5533 35.8925 306° West  Level Estimated
Sun 04:50:00 AM 56.6226 35.7161 306° West  Level Estimated
Sun 04:51:00 AM 56.6916 35.5390 305° West  Level Estimated
Sun 04:52:00 AM 56.7604 35.3612 305° West  Level Estimated
Sun 04:53:00 AM 56.8289 35.1828 305° West  Level Estimated
Sun 04:54:00 AM 56.8972 35.0038 305° West  Level Estimated
Sun 04:55:00 AM 56.9652 34.8241 305° West  Level Estimated
Sun 04:56:00 AM 57.0329 34.6437 305° West  Level Estimated
Sun 04:57:00 AM 57.1004 34.4627 305° West  Level Estimated
Sun 04:58:00 AM 57.1676 34.2811 304° West  Level Estimated
Sun 04:59:00 AM 57.2346 34.0987 304° West  Level Estimated
Sun 05:00:00 AM 57.3013 33.9157 304° West  Level Estimated
Sun 05:01:00 AM 57.3677 33.7321 304° West  Level Estimated
Sun 05:02:00 AM 57.4339 33.5477 304° West  Level Estimated
Sun 05:03:00 AM 57.4997 33.3628 304° West  Level Estimated
Sun 05:04:00 AM 57.5654 33.1771 303° West  Level Estimated
Sun 05:05:00 AM 57.6307 32.9908 303° West  Level Estimated
Sun 05:06:00 AM 57.6958 32.8038 303° West  Level Estimated
Sun 05:07:00 AM 57.7606 32.6161 303° West  Level Estimated
Sun 05:08:00 AM 57.8251 32.4278 303° West  Level Estimated
Sun 05:09:00 AM 57.8893 32.2388 303° West  Level Estimated
Sun 05:10:00 AM 57.9533 32.0491 302° West  Level Estimated
Sun 05:11:00 AM 58.0169 31.8587 302° West  Level Estimated
Sun 05:12:00 AM 58.0803 31.6677 302° West  Level Estimated
Sun 05:13:00 AM 58.1434 31.4759 302° West  Level Estimated
Sun 05:14:00 AM 58.2062 31.2835 302° West  Level Estimated
Sun 05:15:00 AM 58.2687 31.0905 302° West  Level Estimated
Sun 05:16:00 AM 58.3310 30.8967 302° West  Level Estimated
Sun 05:17:00 AM 58.3929 30.7022 301° West  Level Estimated
Sun 05:18:00 AM 58.4545 30.5071 301° West  Level Estimated
Sun 05:19:00 AM 58.5159 30.3113 301° West  Level Estimated
Sun 05:20:00 AM 58.5769 30.1148 301° West  Level Estimated
Sun 05:21:00 AM 58.6376 29.9176 301° West  Level Estimated
Sun 05:22:00 AM 58.6981 29.7198 301° West  Level Estimated
Sun 05:23:00 AM 58.7582 29.5212 300° West  Level Estimated
Sun 05:24:00 AM 58.8180 29.3220 300° West  Level Estimated
Sun 05:25:00 AM 58.8775 29.1221 300° West  Level Estimated
Sun 05:26:00 AM 58.9367 28.9215 300° West  Level Estimated
Sun 05:27:00 AM 58.9957 28.7202 300° West  Level Estimated
Sun 05:28:00 AM 59.0542 28.5182 299° West  Level Estimated
Sun 05:29:00 AM 59.1125 28.3155 299° West  Level Estimated
Sun 05:30:00 AM 59.1704 28.1121 299° West  Level Estimated
Sun 05:31:00 AM 59.2281 27.9081 299° West  Level Estimated
Sun 05:32:00 AM 59.2854 27.7034 299° West  Level Estimated
Sun 05:33:00 AM 59.3424 27.4979 299° West  Level Estimated
Sun 05:34:00 AM 59.3990 27.2918 298° West  Level Estimated
Sun 05:35:00 AM 59.4554 27.0850 298° West  Level Estimated
Sun 05:36:00 AM 59.5114 26.8775 298° West  Level Estimated
Sun 05:37:00 AM 59.5671 26.6693 298° West  Level Estimated
Sun 05:38:00 AM 59.6224 26.4605 298° West  Level Estimated
Sun 05:39:00 AM 59.6774 26.2509 298° West  Level Estimated
Sun 05:40:00 AM 59.7321 26.0407 297° West  Level Estimated
Sun 05:41:00 AM 59.7865 25.8297 297° West  Level Estimated
Sun 05:42:00 AM 59.8405 25.6181 297° West  Level Estimated
Sun 05:43:00 AM 59.8941 25.4058 297° West  Level Estimated
Sun 05:44:00 AM 59.9474 25.1928 297° West  Level Estimated
Sun 05:45:00 AM 60.0004 24.9792 296° West  Level Estimated
Sun 05:46:00 AM 60.0531 24.7648 296° West  Level Estimated
Sun 05:47:00 AM 60.1053 24.5498 296° West  Level Estimated
Sun 05:48:00 AM 60.1573 24.3340 296° West  Level Estimated
Sun 05:49:00 AM 60.2089 24.1176 296° West  Level Estimated
Sun 05:50:00 AM 60.2601 23.9006 296° West  Level Estimated
Sun 05:51:00 AM 60.3110 23.6828 295° West  Level Estimated
Sun 05:52:00 AM 60.3615 23.4644 295° West  Level Estimated
Sun 05:53:00 AM 60.4116 23.2453 295° West  Level Estimated
Sun 05:54:00 AM 60.4614 23.0255 295° West  Level Estimated
Sun 05:55:00 AM 60.5109 22.8050 295° West  Level Estimated
Sun 05:56:00 AM 60.5599 22.5839 294° West  Level Estimated
Sun 05:57:00 AM 60.6086 22.3621 294° West  Level Estimated
Sun 05:58:00 AM 60.6570 22.1396 294° West  Level Estimated
Sun 05:59:00 AM 60.7049 21.9165 294° West  Level Estimated
Sun 06:00:00 AM 60.7525 21.6927 294° West  Level Estimated
Sun 06:01:00 AM 60.7997 21.4683 293° West  Level Estimated
Sun 06:02:00 AM 60.8466 21.2431 293° West  Level Estimated
Sun 06:03:00 AM 60.8930 21.0174 293° West  Level Estimated
Sun 06:04:00 AM 60.9391 20.7909 293° West  Level Estimated
Sun 06:04:28 AM 61.2033 22.4648 293° West 465 535 36,000  Level FlightAware ADS-B
Sun 06:09:39 AM 61.6700 21.4756 293° West 462 532 36,000  Level FlightAware ADS-B
Sun 06:10:48 AM 61.7716 21.2543 314° West 458 527 36,000  Level FlightAware ADS-B
Sun 06:12:03 AM 61.8686 21.0406 314° West 458 527 36,000  Level FlightAware ADS-B
Sun 06:21:46 AM 62.7247 19.0600 297° West 463 533 36,000  Level FlightAware ADS-B
Sun 06:22:16 AM 62.7662 18.9591 312° West 465 535 36,000  Level FlightAware ADS-B
Sun 06:22:47 AM 62.8113 18.8493 312° West 461 531 36,000  Level FlightAware ADS-B
Sun 06:23:32 AM 62.8759 18.6907 312° West 466 536 36,000  Level FlightAware ADS-B
Sun 06:24:06 AM 62.9248 18.5701 312° West 465 535 36,000  Level FlightAware ADS-B
Sun 06:24:52 AM 62.9897 18.4089 312° West 466 536 36,000  Level FlightAware ADS-B
Sun 06:25:22 AM 63.0319 18.3036 312° West 467 537 36,000  Level FlightAware ADS-B
Sun 06:25:52 AM 63.0742 18.1972 311° West 466 536 36,000  Level FlightAware ADS-B
Sun 06:26:28 AM 63.1262 18.0660 311° West 468 539 36,000 Level FlightAware ADS-B
Sun 06:28:00 AM 63.1876 17.6843 290° West  Level Estimated
Sun 06:29:00 AM 63.2135 17.4403 290° West  Level Estimated
Sun 06:30:00 AM 63.2526 17.1900 289° West  Level Estimated
Sun 06:31:00 AM 63.2913 16.9389 289° West  Level Estimated
Sun 06:32:00 AM 63.3295 16.6873 289° West  Level Estimated
Sun 06:33:00 AM 63.3673 16.4349 289° West  Level Estimated
Sun 06:34:00 AM 63.4046 16.1820 288° West  Level Estimated
Sun 06:35:00 AM 63.4415 15.9283 288° West  Level Estimated
Sun 06:36:00 AM 63.4779 15.6740 288° West  Level Estimated
Sun 06:37:00 AM 63.5139 15.4191 288° West  Level Estimated
Sun 06:38:00 AM 63.5494 15.1635 287° West  Level Estimated
Sun 06:39:00 AM 63.5845 14.9073 287° West  Level Estimated
Sun 06:40:00 AM 63.6191 14.6504 287° West  Level Estimated
Sun 06:41:00 AM 63.6533 14.3930 287° West  Level Estimated
Sun 06:42:00 AM 63.6869 14.1349 287° West  Level Estimated
Sun 06:43:00 AM 63.7202 13.8762 286° West  Level Estimated
Sun 06:44:00 AM 63.7529 13.6169 286° West  Level Estimated
Sun 06:45:00 AM 63.7852 13.3570 286° West  Level Estimated
Sun 06:46:00 AM 63.8171 13.0965 286° West  Level Estimated
Sun 06:47:00 AM 63.8484 12.8354 285° West  Level Estimated
Sun 06:48:00 AM 63.8793 12.5738 285° West  Level Estimated
Sun 06:49:00 AM 63.9097 12.3116 285° West  Level Estimated
Sun 06:50:00 AM 63.9397 12.0488 285° West  Level Estimated
Sun 06:51:00 AM 63.9691 11.7854 284° West  Level Estimated
Sun 06:52:00 AM 63.9981 11.5215 284° West  Level Estimated
Sun 06:53:00 AM 64.0266 11.2571 284° West  Level Estimated
Sun 06:54:00 AM 64.0546 10.9921 284° West  Level Estimated
Sun 06:55:00 AM 64.0822 10.7266 283° West  Level Estimated
Sun 06:56:00 AM 64.1092 10.4606 283° West  Level Estimated
Sun 06:57:00 AM 64.1358 10.1941 283° West  Level Estimated
Sun 06:58:00 AM 64.1619 9.9270 283° West  Level Estimated
Sun 06:59:00 AM 64.1874 9.6595 283° West  Level Estimated
Sun 07:00:00 AM 64.2125 9.3914 282° West  Level Estimated
Sun 07:01:00 AM 64.2372 9.1229 282° West  Level Estimated
Sun 07:02:00 AM 64.2613 8.8539 282° West  Level Estimated
Sun 07:03:00 AM 64.2849 8.5845 282° West  Level Estimated
Sun 07:04:00 AM 64.3080 8.3146 281° West  Level Estimated
Sun 07:05:00 AM 64.3306 8.0442 281° West  Level Estimated
Sun 07:06:00 AM 64.3528 7.7734 281° West  Level Estimated
Sun 07:07:00 AM 64.3744 7.5022 281° West  Level Estimated
Sun 07:08:00 AM 64.3955 7.2305 280° West  Level Estimated
Sun 07:09:00 AM 64.4162 6.9585 280° West  Level Estimated
Sun 07:10:00 AM 64.4363 6.6860 280° West  Level Estimated
Sun 07:11:00 AM 64.4559 6.4132 280° West  Level Estimated
Sun 07:12:00 AM 64.4750 6.1399 279° West  Level Estimated
Sun 07:13:00 AM 64.4936 5.8663 279° West  Level Estimated
Sun 07:14:00 AM 64.5117 5.5923 279° West  Level Estimated
Sun 07:15:00 AM 64.5293 5.3179 279° West  Level Estimated
Sun 07:16:00 AM 64.5463 5.0432 278° West  Level Estimated
Sun 07:17:00 AM 64.5629 4.7682 278° West  Level Estimated
Sun 07:18:00 AM 64.5789 4.4928 278° West  Level Estimated
Sun 07:19:00 AM 64.5945 4.2171 278° West  Level Estimated
Sun 07:20:00 AM 64.6095 3.9411 277° West  Level Estimated
Sun 07:21:00 AM 64.6240 3.6648 277° West  Level Estimated
Sun 07:22:00 AM 64.6380 3.3883 277° West  Level Estimated
Sun 07:23:00 AM 64.6515 3.1114 277° West  Level Estimated
Sun 07:24:00 AM 64.6644 2.8342 276° West  Level Estimated
Sun 07:25:00 AM 64.6768 2.5568 276° West  Level Estimated
Sun 07:26:00 AM 64.6887 2.2792 276° West  Level Estimated
Sun 07:27:00 AM 64.7001 2.0013 276° West  Level Estimated
Sun 07:28:00 AM 64.7110 1.7232 275° West  Level Estimated
Sun 07:29:00 AM 64.7214 1.4449 275° West  Level Estimated
Sun 07:30:00 AM 64.7312 1.1663 275° West  Level Estimated
Sun 07:31:00 AM 64.7405 0.8876 275° West  Level Estimated
Sun 07:32:00 AM 64.7493 0.6087 274° West  Level Estimated
Sun 07:33:00 AM 64.7575 0.3296 274° West  Level Estimated
Sun 07:34:00 AM 64.7653 0.0503 274° West  Level Estimated
Sun 07:35:00 AM 64.7725 -0.2291 274° West  Level Estimated
Sun 07:36:00 AM 64.7791 -0.5087 273° West  Level Estimated
Sun 07:37:00 AM 64.7853 -0.7883 273° West  Level Estimated
Sun 07:38:00 AM 64.7909 -1.0682 273° West  Level Estimated
Sun 07:39:00 AM 64.7960 -1.3481 273° West  Level Estimated
Sun 07:40:00 AM 64.8006 -1.6281 272° West  Level Estimated
Sun 07:41:00 AM 64.8046 -1.9082 272° West  Level Estimated
Sun 07:42:00 AM 64.8082 -2.1884 272° West  Level Estimated
Sun 07:43:00 AM 64.8111 -2.4687 272° West  Level Estimated
Sun 07:44:00 AM 64.8136 -2.7490 271° West  Level Estimated
Sun 07:45:00 AM 64.8155 -3.0294 271° West  Level Estimated
Sun 07:46:00 AM 64.8169 -3.3098 271° West  Level Estimated
Sun 07:47:00 AM 64.8178 -3.5902 271° West  Level Estimated
Sun 07:48:00 AM 64.8182 -3.8707 270° West  Level Estimated
Sun 07:49:00 AM 64.8180 -4.1511 270° West  Level Estimated
Sun 07:50:00 AM 64.8173 -4.4315 270° West  Level Estimated
Sun 07:51:00 AM 64.8160 -4.7119 270° West  Level Estimated
Sun 07:52:00 AM 64.8143 -4.9923 269° West  Level Estimated
Sun 07:53:00 AM 64.8120 -5.2726 269° West  Level Estimated
Sun 07:54:00 AM 64.8092 -5.5529 269° West  Level Estimated
Sun 07:55:00 AM 64.8058 -5.8331 269° West  Level Estimated
Sun 07:56:00 AM 64.8019 -6.1133 268° West  Level Estimated
Sun 07:57:00 AM 64.7975 -6.3934 268° West  Level Estimated
Sun 07:58:00 AM 64.7926 -6.6733 268° West  Level Estimated
Sun 07:59:00 AM 64.7871 -6.9532 268° West  Level Estimated
Sun 08:00:00 AM 64.7812 -7.2329 267° West  Level Estimated
Sun 08:01:00 AM 64.7746 -7.5125 267° West  Level Estimated
Sun 08:02:00 AM 64.7676 -7.7920 267° West  Level Estimated
Sun 08:03:00 AM 64.7600 -8.0713 266° West  Level Estimated
Sun 08:04:00 AM 64.7520 -8.3504 266° West  Level Estimated
Sun 08:05:00 AM 64.7433 -8.6294 266° West  Level Estimated
Sun 08:06:00 AM 64.7342 -8.9082 266° West  Level Estimated
Sun 08:07:00 AM 64.7245 -9.1868 265° West  Level Estimated
Sun 08:08:00 AM 64.7144 -9.4652 265° West  Level Estimated
Sun 08:09:00 AM 64.7037 -9.7434 265° West  Level Estimated
Sun 08:10:00 AM 64.6924 -10.0213 265° West  Level Estimated
Sun 08:11:00 AM 64.6807 -10.2990 264° West  Level Estimated
Sun 08:12:00 AM 64.6684 -10.5765 264° West  Level Estimated
Sun 08:13:00 AM 64.6556 -10.8537 264° West  Level Estimated
Sun 08:14:00 AM 64.6423 -11.1307 264° West  Level Estimated
Sun 08:15:00 AM 64.6285 -11.4074 263° West  Level Estimated
Sun 08:16:00 AM 64.6142 -11.6838 263° West  Level Estimated
Sun 08:17:00 AM 64.5993 -11.9599 263° West  Level Estimated
Sun 08:18:00 AM 64.5839 -12.2356 263° West  Level Estimated
Sun 08:19:00 AM 64.5681 -12.5111 262° West  Level Estimated
Sun 08:20:00 AM 64.5517 -12.7863 262° West  Level Estimated
Sun 08:21:00 AM 64.5348 -13.0611 262° West  Level Estimated
Sun 08:22:00 AM 64.5173 -13.3355 262° West  Level Estimated
Sun 08:23:00 AM 64.4994 -13.6096 261° West  Level Estimated
Sun 08:24:00 AM 64.4810 -13.8834 261° West  Level Estimated
Sun 08:25:00 AM 64.4620 -14.1567 261° West  Level Estimated
Sun 08:26:00 AM 64.4426 -14.4297 261° West  Level Estimated
Sun 08:27:00 AM 64.4226 -14.7023 260° West  Level Estimated
Sun 08:28:00 AM 64.4021 -14.9745 260° West  Level Estimated
Sun 08:29:00 AM 64.3812 -15.2463 260° West  Level Estimated
Sun 08:30:00 AM 64.3597 -15.5176 260° West  Level Estimated
Sun 08:31:00 AM 64.3377 -15.7886 260° West  Level Estimated
Sun 08:32:00 AM 64.3153 -16.0591 259° West  Level Estimated
Sun 08:33:00 AM 64.2923 -16.3291 259° West  Level Estimated
Sun 08:34:00 AM 64.2688 -16.5987 259° West  Level Estimated
Sun 08:35:00 AM 64.2449 -16.8679 259° West  Level Estimated
Sun 08:36:00 AM 64.2204 -17.1365 258° West  Level Estimated
Sun 08:37:00 AM 64.1955 -17.4047 258° West  Level Estimated
Sun 08:38:00 AM 64.1701 -17.6724 258° West  Level Estimated
Sun 08:39:00 AM 64.1441 -17.9396 258° West  Level Estimated
Sun 08:40:00 AM 64.1177 -18.2063 257° West  Level Estimated
Sun 08:41:00 AM 64.0908 -18.4725 257° West  Level Estimated
Sun 08:42:00 AM 64.0634 -18.7382 257° West  Level Estimated
Sun 08:43:00 AM 64.0356 -19.0033 257° West  Level Estimated
Sun 08:44:00 AM 64.0072 -19.2679 256° West  Level Estimated
Sun 08:45:00 AM 63.9784 -19.5320 256° West  Level Estimated
Sun 08:46:00 AM 63.9491 -19.7955 256° West  Level Estimated
Sun 08:47:00 AM 63.9193 -20.0585 256° West  Level Estimated
Sun 08:48:00 AM 63.8890 -20.3209 255° West  Level Estimated
Sun 08:49:00 AM 63.8583 -20.5827 255° West  Level Estimated
Sun 08:50:00 AM 63.8271 -20.8440 255° West  Level Estimated
Sun 08:51:00 AM 63.7954 -21.1046 255° West  Level Estimated
Sun 08:52:00 AM 63.7632 -21.3647 254° West  Level Estimated
Sun 08:53:00 AM 63.7306 -21.6242 254° West  Level Estimated
Sun 08:54:00 AM 63.6976 -21.8831 254° West  Level Estimated
Sun 08:55:00 AM 63.6640 -22.1414 254° West  Level Estimated
Sun 08:56:00 AM 63.6300 -22.3990 254° West  Level Estimated
Sun 08:57:00 AM 63.5956 -22.6561 253° West  Level Estimated
Sun 08:58:00 AM 63.5606 -22.9125 253° West  Level Estimated
Sun 08:59:00 AM 63.5253 -23.1683 253° West  Level Estimated
Sun 09:00:00 AM 63.4894 -23.4234 253° West  Level Estimated
Sun 09:01:00 AM 63.4531 -23.6779 252° West  Level Estimated
Sun 09:02:00 AM 63.4164 -23.9318 252° West  Level Estimated
Sun 09:03:00 AM 63.3792 -24.1850 252° West  Level Estimated
Sun 09:04:00 AM 63.3416 -24.4375 252° West  Level Estimated
Sun 09:05:00 AM 63.3035 -24.6894 252° West  Level Estimated
Sun 09:06:00 AM 63.2650 -24.9406 251° West  Level Estimated
Sun 09:07:00 AM 63.2260 -25.1912 251° West  Level Estimated
Sun 09:08:00 AM 63.1866 -25.4410 251° West  Level Estimated
Sun 09:09:00 AM 63.1468 -25.6902 251° West  Level Estimated
Sun 09:10:00 AM 63.1065 -25.9387 250° West  Level Estimated
Sun 09:11:00 AM 63.0658 -26.1865 250° West  Level Estimated
Sun 09:12:00 AM 63.0247 -26.4336 250° West  Level Estimated
Sun 09:13:00 AM 62.9831 -26.6800 250° West  Level Estimated
Sun 09:14:00 AM 62.9411 -26.9257 250° West  Level Estimated
Sun 09:15:00 AM 62.8987 -27.1707 249° West  Level Estimated
Sun 09:16:00 AM 62.8558 -27.4150 249° West  Level Estimated
Sun 09:17:00 AM 62.8125 -27.6585 249° West  Level Estimated
Sun 09:18:00 AM 62.7688 -27.9014 249° West  Level Estimated
Sun 09:19:00 AM 62.7247 -28.1435 248° West  Level Estimated
Sun 09:20:00 AM 62.6802 -28.3849 248° West  Level Estimated
Sun 09:21:00 AM 62.6353 -28.6256 248° West  Level Estimated
Sun 09:22:00 AM 62.5899 -28.8655 248° West  Level Estimated
Sun 09:23:00 AM 62.5442 -29.1047 248° West  Level Estimated
Sun 09:24:00 AM 62.4980 -29.3432 247° West  Level Estimated
Sun 09:25:00 AM 62.4515 -29.5809 247° West  Level Estimated
Sun 09:26:00 AM 62.4045 -29.8179 247° West  Level Estimated
Sun 09:27:00 AM 62.3571 -30.0541 247° West  Level Estimated
Sun 09:28:00 AM 62.3093 -30.2896 247° West  Level Estimated
Sun 09:29:00 AM 62.2612 -30.5243 246° West  Level Estimated
Sun 09:30:00 AM 62.2126 -30.7583 246° West  Level Estimated
Sun 09:31:00 AM 62.1637 -30.9916 246° West  Level Estimated
Sun 09:32:00 AM 62.1143 -31.2241 246° West  Level Estimated
Sun 09:33:00 AM 62.0646 -31.4558 245° Southwest  Level Estimated
Sun 09:34:00 AM 62.0144 -31.6867 245° Southwest  Level Estimated
Sun 09:35:00 AM 61.9639 -31.9169 245° Southwest  Level Estimated
Sun 09:36:00 AM 61.9130 -32.1464 245° Southwest  Level Estimated
Sun 09:37:00 AM 61.8618 -32.3750 245° Southwest  Level Estimated
Sun 09:38:00 AM 61.8101 -32.6029 244° Southwest  Level Estimated
Sun 09:39:00 AM 61.7581 -32.8301 244° Southwest  Level Estimated
Sun 09:40:00 AM 61.7057 -33.0564 244° Southwest  Level Estimated
Sun 09:41:00 AM 61.6529 -33.2820 244° Southwest  Level Estimated
Sun 09:42:00 AM 61.5998 -33.5068 244° Southwest  Level Estimated
Sun 09:43:00 AM 61.5463 -33.7309 243° Southwest  Level Estimated
Sun 09:44:00 AM 61.4924 -33.9542 243° Southwest  Level Estimated
Sun 09:45:00 AM 61.4382 -34.1767 243° Southwest  Level Estimated
Sun 09:46:00 AM 61.3836 -34.3984 243° Southwest  Level Estimated
Sun 09:47:00 AM 61.3286 -34.6193 243° Southwest  Level Estimated
Sun 09:48:00 AM 61.2733 -34.8395 242° Southwest  Level Estimated
Sun 09:49:00 AM 61.2176 -35.0589 242° Southwest  Level Estimated
Sun 09:50:00 AM 61.1616 -35.2775 242° Southwest  Level Estimated
Sun 09:51:00 AM 61.1052 -35.4953 242° Southwest  Level Estimated
Sun 09:52:00 AM 61.0485 -35.7124 242° Southwest  Level Estimated
Sun 09:53:00 AM 60.9914 -35.9287 242° Southwest  Level Estimated
Sun 09:54:00 AM 60.9340 -36.1442 241° Southwest  Level Estimated
Sun 09:55:00 AM 60.8763 -36.3589 241° Southwest  Level Estimated
Sun 09:56:00 AM 60.8181 -36.5729 241° Southwest  Level Estimated
Sun 09:57:00 AM 60.7597 -36.7861 241° Southwest  Level Estimated
Sun 09:58:00 AM 60.7009 -36.9985 241° Southwest  Level Estimated
Sun 09:59:00 AM 60.6418 -37.2101 240° Southwest  Level Estimated
Sun 10:00:00 AM 60.5824 -37.4209 240° Southwest  Level Estimated
Sun 10:01:00 AM 60.5226 -37.6310 240° Southwest  Level Estimated
Sun 10:02:00 AM 60.4625 -37.8403 240° Southwest  Level Estimated
Sun 10:03:00 AM 60.4021 -38.0488 240° Southwest  Level Estimated
Sun 10:04:00 AM 60.3413 -38.2565 239° Southwest  Level Estimated
Sun 10:05:00 AM 60.2803 -38.4635 239° Southwest  Level Estimated
Sun 10:06:00 AM 60.2188 -38.6697 239° Southwest  Level Estimated
Sun 10:07:00 AM 60.1571 -38.8751 239° Southwest  Level Estimated
Sun 10:08:00 AM 60.0951 -39.0798 239° Southwest  Level Estimated
Sun 10:09:00 AM 60.0327 -39.2836 239° Southwest  Level Estimated
Sun 10:10:00 AM 59.9701 -39.4867 238° Southwest  Level Estimated
Sun 10:11:00 AM 59.9071 -39.6891 238° Southwest  Level Estimated
Sun 10:12:00 AM 59.8438 -39.8907 238° Southwest  Level Estimated
Sun 10:13:00 AM 59.7803 -40.0914 238° Southwest  Level Estimated
Sun 10:14:00 AM 59.7164 -40.2915 238° Southwest  Level Estimated
Sun 10:15:00 AM 59.6522 -40.4908 238° Southwest  Level Estimated
Sun 10:16:00 AM 59.5877 -40.6893 237° Southwest  Level Estimated
Sun 10:17:00 AM 59.5229 -40.8870 237° Southwest  Level Estimated
Sun 10:18:00 AM 59.4578 -41.0840 237° Southwest  Level Estimated
Sun 10:19:00 AM 59.3924 -41.2802 237° Southwest  Level Estimated
Sun 10:20:00 AM 59.3267 -41.4757 237° Southwest  Level Estimated
Sun 10:21:00 AM 59.2607 -41.6704 237° Southwest  Level Estimated
Sun 10:22:00 AM 59.1945 -41.8644 236° Southwest  Level Estimated
Sun 10:23:00 AM 59.1279 -42.0576 236° Southwest  Level Estimated
Sun 10:24:00 AM 59.0611 -42.2500 236° Southwest  Level Estimated
Sun 10:25:00 AM 58.9940 -42.4418 236° Southwest  Level Estimated
Sun 10:26:00 AM 58.9266 -42.6327 236° Southwest  Level Estimated
Sun 10:27:00 AM 58.8589 -42.8229 236° Southwest  Level Estimated
Sun 10:28:00 AM 58.7909 -43.0124 235° Southwest  Level Estimated
Sun 10:29:00 AM 58.7227 -43.2011 235° Southwest  Level Estimated
Sun 10:30:00 AM 58.6542 -43.3891 235° Southwest  Level Estimated
Sun 10:31:00 AM 58.5854 -43.5764 235° Southwest  Level Estimated
Sun 10:32:00 AM 58.5163 -43.7629 235° Southwest  Level Estimated
Sun 10:33:00 AM 58.4470 -43.9487 235° Southwest  Level Estimated
Sun 10:34:00 AM 58.3774 -44.1337 234° Southwest  Level Estimated
Sun 10:35:00 AM 58.3075 -44.3180 234° Southwest  Level Estimated
Sun 10:36:00 AM 58.2374 -44.5016 234° Southwest  Level Estimated
Sun 10:37:00 AM 58.1670 -44.6845 234° Southwest  Level Estimated
Sun 10:38:00 AM 58.0964 -44.8666 234° Southwest  Level Estimated
Sun 10:39:00 AM 58.0255 -45.0480 234° Southwest  Level Estimated
Sun 10:40:00 AM 57.9543 -45.2287 233° Southwest  Level Estimated
Sun 10:41:00 AM 57.8829 -45.4087 233° Southwest  Level Estimated
Sun 10:42:00 AM 57.8112 -45.5880 233° Southwest  Level Estimated
Sun 10:43:00 AM 57.7393 -45.7665 233° Southwest  Level Estimated
Sun 10:44:00 AM 57.6672 -45.9444 233° Southwest  Level Estimated
Sun 10:45:00 AM 57.5947 -46.1215 233° Southwest  Level Estimated
Sun 10:46:00 AM 57.5221 -46.2980 233° Southwest  Level Estimated
Sun 10:47:00 AM 57.4480 -46.4765 232° Southwest  Level Estimated
Sun 10:48:00 AM 57.3737 -46.6543 232° Southwest  Level Estimated
Sun 10:49:00 AM 57.2991 -46.8313 232° Southwest  Level Estimated
Sun 10:50:00 AM 57.2243 -47.0077 232° Southwest  Level Estimated
Sun 10:51:00 AM 57.1492 -47.1833 232° Southwest  Level Estimated
Sun 10:52:00 AM 57.0739 -47.3582 232° Southwest  Level Estimated
Sun 10:53:00 AM 56.9984 -47.5324 232° Southwest  Level Estimated
Sun 10:54:00 AM 56.9226 -47.7059 231° Southwest  Level Estimated
Sun 10:55:00 AM 56.8466 -47.8787 231° Southwest  Level Estimated
Sun 10:55:06 AM 59.3333 -57.0333 231° Southwest 440 506 37,000  Level Gander Center
Sun 10:56:00 AM 56.7703 -48.0508 231° Southwest  Level Estimated
Sun 10:56:06 AM 59.2667 -57.2500 239° Southwest 440 506 37,000  Level Gander Center
Sun 10:57:00 AM 56.6938 -48.2221 231° Southwest  Level Estimated
Sun 10:57:06 AM 59.1833 -57.4167 226° Southwest 440 506 37,000  Level Gander Center
Sun 10:58:00 AM 56.6171 -48.3928 231° Southwest  Level Estimated
Sun 10:58:06 AM 59.1000 -57.5833 226° Southwest 440 506 37,000  Level Gander Center
Sun 10:59:00 AM 56.5401 -48.5628 231° Southwest  Level Estimated
Sun 10:59:06 AM 59.0167 -57.7500 226° Southwest 440 506 37,000  Level Gander Center
Sun 11:00:00 AM 56.4630 -48.7321 231° Southwest  Level Estimated
Sun 11:00:06 AM 58.9500 -57.9500 237° Southwest 440 506 37,000  Level Gander Center
Sun 11:01:06 AM 58.8667 -58.1167 226° Southwest 440 506 37,000  Level Gander Center
Sun 11:02:06 AM 58.7833 -58.3000 229° Southwest 440 506 37,000  Level Gander Center
Sun 11:03:06 AM 58.7000 -58.5000 231° Southwest 440 506 37,000  Level Gander Center
Sun 11:04:06 AM 58.6333 -58.6500 230° Southwest 440 506 37,000  Level Gander Center
Sun 11:05:06 AM 58.5500 -58.8167 226° Southwest 430 495 37,000  Level Gander Center
Sun 11:06:06 AM 58.4333 -58.9667 214° Southwest 430 495 37,000  Level Gander Center
Sun 11:07:06 AM 58.3333 -59.0667 208° Southwest 440 506 37,000  Level Gander Center
Sun 11:08:06 AM 58.2167 -59.1667 204° Southwest 440 506 37,000  Level Gander Center
Sun 11:09:06 AM 58.1167 -59.3000 215° Southwest 440 506 37,000  Level Gander Center
Sun 11:10:06 AM 58.0000 -59.4000 204° Southwest 440 506 37,000  Level Gander Center
Sun 11:11:06 AM 57.9167 -59.5167 217° Southwest 440 506 37,000 50 Level Gander Center
Sun 11:12:06 AM 57.8000 -59.6167 205° Southwest 440 506 37,100 300 Climbing Gander Center
Sun 11:13:06 AM 57.7000 -59.7167 208° Southwest 440 506 37,600 400 Climbing Gander Center
Sun 11:14:06 AM 57.5833 -59.8500 212° Southwest 440 506 37,900 200 Climbing Gander Center
Sun 11:15:06 AM 57.4833 -59.9500 208° Southwest 440 506 38,000 50 Climbing Gander Center
Sun 11:16:06 AM 57.3667 -60.0500 205° Southwest 440 506 38,000  Level Gander Center
Sun 11:17:06 AM 57.2667 -60.1667 212° Southwest 430 495 38,000  Level Gander Center
Sun 11:18:06 AM 57.1500 -60.2667 205° Southwest 430 495 38,000  Level Gander Center
Sun 11:19:06 AM 57.0500 -60.3667 209° Southwest 430 495 38,000  Level Gander Center
Sun 11:20:06 AM 56.9500 -60.4500 204° Southwest 430 495 38,000  Level Gander Center
Sun 11:21:06 AM 56.8333 -60.5833 212° Southwest 430 495 38,000  Level Gander Center
Sun 11:22:06 AM 56.7333 -60.6667 205° Southwest 430 495 38,000  Level Gander Center
Sun 11:23:06 AM 56.6333 -60.7667 209° Southwest 420 483 38,000  Level Gander Center
Sun 11:24:06 AM 56.5333 -60.8667 209° Southwest 430 495 38,000  Level Gander Center
Sun 11:25:06 AM 56.4167 -60.9833 209° Southwest 430 495 38,000  Level Gander Center
Sun 11:26:06 AM 56.3167 -61.0667 205° Southwest 420 483 38,000  Level Gander Center
Sun 11:27:06 AM 56.2167 -61.1667 209° Southwest 430 495 38,000  Level Gander Center
Sun 11:28:06 AM 56.1000 -61.2833 209° Southwest 430 495 38,000  Level Gander Center
Sun 11:29:06 AM 56.0000 -61.3667 205° Southwest 430 495 38,000  Level Gander Center
Sun 11:30:06 AM 55.9000 -61.4667 209° Southwest 430 495 38,000  Level Gander Center
Sun 11:31:06 AM 55.7833 -61.5500 202° Southwest 420 483 38,000  Level Gander Center
Sun 11:32:06 AM 55.6833 -61.6333 205° Southwest 420 483 38,000  Level Gander Center
Sun 11:33:06 AM 55.5833 -61.7500 213° Southwest 420 483 38,000  Level Gander Center
Sun 11:34:06 AM 55.4833 -61.8500 210° Southwest 420 483 38,000  Level Gander Center
Sun 11:35:06 AM 55.3667 -61.9333 202° Southwest 420 483 38,000  Level Gander Center
Sun 11:36:06 AM 55.2667 -62.0167 205° Southwest 420 483 38,000  Level Gander Center
Sun 11:37:06 AM 55.1667 -62.1000 205° Southwest 410 472 38,000  Level Gander Center
Sun 11:38:06 AM 55.0667 -62.1833 206° Southwest 410 472 38,000  Level Gander Center
Sun 11:39:06 AM 54.9667 -62.3000 214° Southwest 410 472 38,000  Level Gander Center
Sun 11:40:06 AM 54.8667 -62.3833 206° Southwest 420 483 38,000  Level Gander Center
Sun 11:41:06 AM 54.7667 -62.4667 206° Southwest 420 483 38,000  Level Gander Center
Sun 11:42:06 AM 54.6500 -62.5500 202° Southwest 420 483 38,000  Level Gander Center
Sun 11:43:06 AM 54.5333 -62.6333 203° Southwest 420 483 38,000  Level Gander Center
Sun 11:44:06 AM 54.4333 -62.7500 214° Southwest 420 483 38,000  Level Gander Center
Sun 11:45:06 AM 54.3333 -62.8333 206° Southwest 420 483 38,000  Level Gander Center
Sun 11:46:06 AM 54.2167 -62.9167 203° Southwest 410 472 38,000  Level Gander Center
Sun 11:47:06 AM 54.1167 -63.0000 206° Southwest 410 472 38,000  Level Gander Center
Sun 11:48:06 AM 54.0167 -63.0667 201° Southwest 410 472 38,000  Level Gander Center
Sun 11:49:06 AM 53.9167 -63.1500 206° Southwest 410 472 38,000  Level Gander Center
Sun 11:50:06 AM 53.8167 -63.2333 206° Southwest 410 472 38,000  Level Gander Center
Sun 11:51:06 AM 53.7167 -63.3500 215° Southwest 410 472 38,000  Level Gander Center
Sun 11:52:06 AM 53.6167 -63.4167 202° Southwest 400 460 38,000  Level Gander Center
Sun 11:53:06 AM 53.5167 -63.5000 206° Southwest 410 472 38,000  Level Gander Center
Sun 11:54:06 AM 53.4000 -63.5833 203° Southwest 410 472 38,000  Level Gander Center
Sun 11:55:06 AM 53.3000 -63.6667 206° Southwest 410 472 38,000  Level Gander Center
Sun 11:56:06 AM 53.2000 -63.7333 202° Southwest 400 460 38,000  Level Gander Center
Sun 11:57:06 AM 53.1000 -63.8167 207° Southwest 400 460 38,000  Level Gander Center
Sun 11:58:06 AM 53.0000 -63.9000 207° Southwest 400 460 38,000  Level Gander Center
Sun 11:59:06 AM 52.9000 -63.9667 202° Southwest 400 460 38,000  Level Gander Center
Sun 12:00:06 PM 52.8000 -64.0500 207° Southwest 400 460 38,000  Level Gander Center
Sun 12:01:06 PM 52.7000 -64.1167 202° Southwest 400 460 38,000  Level Gander Center
Sun 12:02:06 PM 52.5833 -64.2000 203° Southwest 400 460 38,000  Level Gander Center
Sun 12:03:06 PM 52.5000 -64.2833 211° Southwest 400 460 38,000  Level Gander Center
Sun 12:04:06 PM 52.4000 -64.3500 202° Southwest 400 460 38,000  Level Gander Center
Sun 12:05:06 PM 52.3000 -64.4333 207° Southwest 390 449 38,000  Level Gander Center
Sun 12:06:06 PM 52.2000 -64.5000 202° Southwest 390 449 38,000  Level Gander Center
Sun 12:07:06 PM 52.1000 -64.5833 207° Southwest 390 449 38,000  Level Gander Center
Sun 12:08:06 PM 52.0167 -64.6500 206° Southwest 390 449 38,000  Level Gander Center
Sun 12:09:06 PM 51.8833 -64.7167 197° South 390 449 38,000  Level Gander Center
Sun 12:09:58 PM 51.8167 -64.8000 218° Southwest 390 449 38,000  Level Moncton Center
Sun 12:10:58 PM 51.7167 -64.8500 197° South 390 449 38,000  Level Moncton Center
Sun 12:11:58 PM 51.6167 -64.9333 207° Southwest 390 449 38,000  Level Moncton Center
Sun 12:12:58 PM 51.5167 -65.0167 207° Southwest 390 449 38,000  Level Moncton Center
Sun 12:13:58 PM 51.4333 -65.0667 201° Southwest 380 437 38,000  Level Moncton Center
Sun 12:14:58 PM 51.3333 -65.1500 208° Southwest 380 437 38,000  Level Moncton Center
Sun 12:15:58 PM 51.2333 -65.2333 208° Southwest 390 449 38,000  Level Moncton Center
Sun 12:16:58 PM 51.1333 -65.2833 197° South 390 449 38,000  Level Moncton Center
Sun 12:17:58 PM 51.0333 -65.3500 203° Southwest 380 437 38,000  Level Moncton Center
Sun 12:18:58 PM 50.9500 -65.4333 212° Southwest 380 437 38,000  Level Moncton Center
Sun 12:19:58 PM 50.8500 -65.4833 198° South 380 437 38,000  Level Moncton Center
Sun 12:20:58 PM 50.7333 -65.5667 204° Southwest 380 437 38,000  Level Moncton Center
Sun 12:21:58 PM 50.6333 -65.6333 203° Southwest 380 437 38,000  Level Moncton Center
Sun 12:22:58 PM 50.5500 -65.6833 201° Southwest 380 437 38,000  Level Moncton Center
Sun 12:23:58 PM 50.4500 -65.7667 208° Southwest 370 426 38,000  Level Moncton Center
Sun 12:24:58 PM 50.3500 -65.8167 198° South 370 426 38,000  Level Moncton Center
Sun 12:25:58 PM 50.2667 -65.8833 207° Southwest 380 437 38,000  Level Moncton Center
Sun 12:27:06 PM 50.1667 -65.9500 203° Southwest 380 437 38,000  Level Gander Center
Sun 12:28:06 PM 50.0500 -66.0167 200° South 380 437 38,000  Level Gander Center
Sun 12:29:06 PM 49.9667 -66.1000 213° Southwest 370 426 38,000  Level Gander Center
Sun 12:30:06 PM 49.8667 -66.1667 203° Southwest 370 426 38,000  Level Gander Center
Sun 12:30:58 PM 49.8000 -66.2167 206° Southwest 370 426 38,000  Level Moncton Center
Sun 12:31:58 PM 49.7000 -66.2667 198° South 360 414 38,000  Level Moncton Center
Sun 12:32:58 PM 49.6167 -66.3333 207° Southwest 360 414 38,000  Level Moncton Center
Sun 12:33:58 PM 49.5000 -66.3833 196° South 360 414 38,000  Level Moncton Center
Sun 12:34:58 PM 49.4167 -66.4500 207° Southwest 360 414 38,000  Level Moncton Center
Sun 12:35:58 PM 49.3167 -66.5000 198° South 360 414 38,000  Level Moncton Center
Sun 12:36:58 PM 49.2333 -66.5833 213° Southwest 360 414 38,000  Level Moncton Center
Sun 12:37:58 PM 49.1333 -66.6167 192° South 360 414 38,000  Level Moncton Center
Sun 12:38:58 PM 49.0500 -66.7000 213° Southwest 360 414 38,000  Level Moncton Center
Sun 12:39:58 PM 48.9500 -66.7500 198° South 360 414 38,000  Level Moncton Center
Sun 12:41:06 PM 48.8500 -66.8167 204° Southwest 360 414 38,000  Level Gander Center
Sun 12:42:06 PM 48.7667 -66.8833 208° Southwest 360 414 38,000  Level Gander Center
Sun 12:43:06 PM 48.6667 -66.9333 198° South 350 403 38,000  Level Gander Center
Sun 12:44:06 PM 48.5833 -67.0000 208° Southwest 350 403 38,000  Level Gander Center
Sun 12:45:06 PM 48.4833 -67.0667 204° Southwest 350 403 38,000  Level Gander Center
Sun 12:46:06 PM 48.4000 -67.1000 195° South 350 403 38,000  Level Gander Center
Sun 12:46:58 PM 48.3167 -67.1500 202° Southwest 350 403 38,000  Level Moncton Center
Sun 12:47:58 PM 48.2333 -67.2167 208° Southwest 350 403 38,000  Level Moncton Center
Sun 12:48:58 PM 48.1500 -67.2500 195° South 350 403 38,000  Level Moncton Center
Sun 12:49:58 PM 48.0667 -67.3000 202° Southwest 350 403 38,000  Level Moncton Center
Sun 12:56:20 PM 47.5012 -67.6632 202° Southwest 344 396 38,000  Level FlightAware ADS-B
Sun 12:57:24 PM 47.4105 -67.7177 202° Southwest 338 389 38,000  Level FlightAware ADS-B
Sun 12:58:42 PM 47.2969 -67.7858 202° Southwest 335 386 38,000  Level FlightAware ADS-B
Sun 01:00:03 PM 47.1812 -67.8547 202° Southwest 333 383 38,000  Level FlightAware ADS-B
Sun 01:00:37 PM 47.1471 -67.8749 202° Southwest 332 382 38,000  Level FlightAware ADS-B
Sun 01:01:08 PM 47.0875 -67.9102 202° Southwest 333 383 38,000  Level FlightAware ADS-B
Sun 01:02:22 PM 46.9997 -67.9623 202° Southwest 334 384 38,000  Level FlightAware ADS-B
Sun 01:04:23 PM 46.8097 -68.0740 202° Southwest 336 387 38,000  Level FlightAware ADS-B
Sun 01:05:01 PM 46.7531 -68.1036 200° South 350 403 38,000  Level FlightAware ADS-B
Sun 01:06:37 PM 46.6028 -68.1662 196° South 357 411 38,000  Level FlightAware ADS-B
Sun 01:07:23 PM 46.5291 -68.1968 196° South 361 415 38,000  Level FlightAware ADS-B
Sun 01:07:54 PM 46.4793 -68.2175 196° South 363 418 38,000  Level FlightAware ADS-B
Sun 01:08:32 PM 46.4171 -68.2431 196° South 365 420 38,000  Level FlightAware ADS-B
Sun 01:09:13 PM 46.3521 -68.2698 196° South 365 420 38,000  Level FlightAware ADS-B
Sun 01:09:53 PM 46.2861 -68.2970 196° South 365 420 38,000  Level FlightAware ADS-B
Sun 01:10:32 PM 46.2234 -68.3227 196° South 366 421 38,000  Level FlightAware ADS-B
Sun 01:11:14 PM 46.1547 -68.3509 196° South 367 422 38,000  Level FlightAware ADS-B
Sun 01:11:55 PM 46.0881 -68.3779 196° South 366 421 38,000  Level FlightAware ADS-B
Sun 01:12:35 PM 46.0253 -68.4034 196° South 366 421 38,000  Level FlightAware ADS-B
Sun 01:13:15 PM 45.9661 -68.4275 196° South 365 420 38,000  Level FlightAware ADS-B
Sun 01:13:50 PM 45.9007 -68.4540 196° South 365 420 38,000  Level FlightAware ADS-B
Sun 01:14:50 PM 45.8042 -68.4931 196° South 369 425 38,000  Level FlightAware ADS-B
Sun 01:15:32 PM 45.7348 -68.5210 196° South 370 426 38,000  Level FlightAware ADS-B
Sun 01:16:14 PM 45.6646 -68.5490 196° South 370 426 38,000  Level FlightAware ADS-B
Sun 01:16:55 PM 45.5977 -68.5758 196° South 370 426 38,000  Level FlightAware ADS-B
Sun 01:17:34 PM 45.5344 -68.6012 196° South 373 429 38,000  Level FlightAware ADS-B
Sun 01:18:12 PM 45.4697 -68.6271 196° South 376 433 38,000  Level FlightAware ADS-B
Sun 01:18:55 PM 45.3979 -68.6556 196° South 379 436 38,000  Level FlightAware ADS-B
Sun 01:19:35 PM 45.3309 -68.6821 196° South 380 437 38,000  Level FlightAware ADS-B
Sun 01:20:15 PM 45.2623 -68.7092 196° South 381 438 38,000  Level FlightAware ADS-B
Sun 01:20:54 PM 45.1962 -68.7354 196° South 383 441 38,000  Level FlightAware ADS-B
Sun 01:21:35 PM 45.1269 -68.7627 196° South 386 444 38,000  Level FlightAware ADS-B
Sun 01:22:16 PM 45.0557 -68.7906 195° South 388 447 38,000  Level FlightAware ADS-B
Sun 01:22:55 PM 44.9933 -68.8150 195° South 389 448 38,000  Level FlightAware ADS-B (EGHI / SOU)
Sun 01:23:36 PM 44.9191 -68.8440 195° South 389 448 38,000  Level FlightAware ADS-B
Sun 01:24:11 PM 44.8609 -68.8671 196° South 384 442 38,000  Level FlightAware ADS-B (EGHI / SOU)
Sun 01:24:34 PM 44.8205 -68.8883 200° South 377 434 38,000  Level FlightAware ADS-B (EGHI / SOU)
Sun 01:25:14 PM 44.7566 -68.9318 206° Southwest 374 430 38,000  Level FlightAware ADS-B (EGHI / SOU)
Sun 01:25:56 PM 44.6926 -68.9760 206° Southwest 375 432 38,000  Level FlightAware ADS-B
Sun 01:26:33 PM 44.6402 -69.0118 206° Southwest 374 430 38,000  Level FlightAware ADS-B (EGHI / SOU)
Sun 01:27:17 PM 44.5659 -69.0623 206° Southwest 377 434 38,000  Level FlightAware ADS-B
Sun 01:27:57 PM 44.5016 -69.1058 206° Southwest 378 435 38,000  Level FlightAware ADS-B
Sun 01:28:27 PM 44.4559 -69.1367 206° Southwest 380 437 38,000  Level FlightAware ADS-B (EGHI / SOU)
Sun 01:28:57 PM 44.4075 -69.1693 206° Southwest 381 438 38,000  Level FlightAware ADS-B
Sun 01:29:37 PM 44.3446 -69.2117 206° Southwest 381 438 38,000  Level FlightAware ADS-B
Sun 01:30:07 PM 44.2977 -69.2433 206° Southwest 381 438 38,000  Level FlightAware ADS-B (EGHI / SOU)
Sun 01:30:39 PM 44.2461 -69.2778 206° Southwest 374 430 38,000  Level FlightAware ADS-B
Sun 01:31:19 PM 44.1814 -69.3211 206° Southwest 376 433 38,000  Level FlightAware ADS-B
Sun 01:32:00 PM 44.1171 -69.3640 206° Southwest 376 433 38,000  Level FlightAware ADS-B
Sun 01:32:41 PM 44.0524 -69.4070 206° Southwest 376 433 38,000  Level FlightAware ADS-B
Sun 01:33:21 PM 43.9871 -69.4504 206° Southwest 375 432 38,000  Level FlightAware ADS-B
Sun 01:33:59 PM 43.9263 -69.4907 206° Southwest 374 430 38,000  Level FlightAware ADS-B
Sun 01:34:41 PM 43.8600 -69.5344 205° Southwest 378 435 38,000  Level FlightAware ADS-B
Sun 01:35:25 PM 43.7929 -69.5788 206° Southwest 378 435 38,000  Level FlightAware ADS-B (EGHI / SOU)
Sun 01:36:00 PM 43.7361 -69.6161 205° Southwest 378 435 38,000  Level FlightAware ADS-B
Sun 01:36:33 PM 43.6838 -69.6505 205° Southwest 379 436 38,000  Level FlightAware ADS-B
Sun 01:37:21 PM 43.6082 -69.7001 205° Southwest 381 438 38,000  Level FlightAware ADS-B
Sun 01:37:59 PM 43.5470 -69.7401 205° Southwest 376 433 38,000  Level FlightAware ADS-B
Sun 01:38:22 PM 43.5111 -69.7635 205° Southwest 376 433 38,000  Level FlightAware ADS-B
Sun 01:38:41 PM 43.4903 -69.7770 205° Southwest 383 441 38,000  Level FlightAware ADS-B
Sun 01:38:59 PM 43.4565 -69.7990 205° Southwest 386 444 38,000  Level FlightAware ADS-B (EGHI / SOU)
Sun 01:39:05 PM 43.4424 -69.8070 203° Southwest 388 447 38,000  Level FlightAware ADS-B (EGHI / SOU)
Sun 01:39:42 PM 43.3767 -69.8345 197° South 395 455 38,000  Level FlightAware ADS-B
Sun 01:40:23 PM 43.2998 -69.8509 189° South 418 481 38,000  Level FlightAware ADS-B
Sun 01:41:00 PM 43.2276 -69.8626 187° South 408 470 38,000  Level FlightAware ADS-B
Sun 01:41:30 PM 43.1724 -69.8713 187° South 419 482 38,000  Level FlightAware ADS-B
Sun 01:42:00 PM 43.1138 -69.8800 186° South 418 481 38,000  Level FlightAware ADS-B
Sun 01:42:35 PM 43.0468 -69.8897 186° South 419 482 38,000  Level FlightAware ADS-B
Sun 01:43:16 PM 42.9689 -69.9011 186° South 420 483 38,000  Level FlightAware ADS-B
Sun 01:43:56 PM 42.8900 -69.9126 186° South 422 486 38,000  Level FlightAware ADS-B
Sun 01:44:37 PM 42.8096 -69.9242 186° South 423 487 38,000  Level FlightAware ADS-B
Sun 01:45:17 PM 42.7319 -69.9354 186° South 423 487 38,000  Level FlightAware ADS-B
Sun 01:46:02 PM 42.6496 -69.9473 186° South 425 489 38,000  Level FlightAware ADS-B
Sun 01:46:41 PM 42.5682 -69.9590 186° South 427 491 38,000  Level FlightAware ADS-B
Sun 01:47:23 PM 42.4861 -69.9708 186° South 428 493 38,000  Level FlightAware ADS-B
Sun 01:47:57 PM 42.4190 -69.9804 186° South 420 483 38,000  Level FlightAware ADS-B
Sun 01:48:27 PM 42.3626 -69.9884 186° South 428 493 38,000  Level FlightAware ADS-B
Sun 01:49:03 PM 42.2887 -69.9988 186° South 419 482 38,000  Level FlightAware ADS-B
Sun 01:49:43 PM 42.2101 -70.0099 186° South 419 482 38,000  Level FlightAware ADS-B
Sun 01:50:22 PM 42.1347 -70.0277 190° South 412 474 38,000  Level FlightAware ADS-B
Sun 01:50:34 PM 42.1382 -70.0265 14° North 402 463 38,000  Level FlightAware ADS-B (KOWD)
Sun 01:51:12 PM 42.0499 -70.0685 199° South 394 453 38,000  Level FlightAware ADS-B
Sun 01:51:19 PM 42.0408 -70.0744 206° Southwest 392 451 38,000  Level FlightAware ADS-B (KOWD)
Sun 01:51:37 PM 42.0089 -70.0970 208° Southwest 386 444 38,000  Level FlightAware ADS-B (KOWD)
Sun 01:52:07 PM 41.9797 -70.1214 212° Southwest 378 435 38,000  Level FlightAware ADS-B (KOWD)
Sun 01:52:43 PM 41.9162 -70.1897 219° Southwest 361 415 38,000  Level FlightAware ADS-B
Sun 01:52:59 PM 41.8971 -70.2151 225° Southwest 357 411 38,000  Level FlightAware ADS-B
Sun 01:53:39 PM 41.8517 -70.2813 227° Southwest 360 414 38,000  Level FlightAware ADS-B
Sun 01:54:14 PM 41.8129 -70.3372 227° Southwest 359 413 38,000  Level FlightAware ADS-B (ESTA / AGH)
Sun 01:54:48 PM 41.7746 -70.3930 227° Southwest 360 414 38,000  Level FlightAware ADS-B (KOWD)
Sun 01:55:27 PM 41.7315 -70.4558 227° Southwest 360 414 38,000  Level FlightAware ADS-B (ESTA / AGH)
Sun 01:56:04 PM 41.6894 -70.5170 227° Southwest 361 415 38,000  Level FlightAware ADS-B
Sun 01:56:39 PM 41.6499 -70.5743 227° Southwest 361 415 38,000  Level FlightAware ADS-B
Sun 01:57:09 PM 41.6159 -70.6235 227° Southwest 360 414 38,000  Level FlightAware ADS-B
Sun 01:57:49 PM 41.5737 -70.6844 227° Southwest 361 415 38,000  Level FlightAware ADS-B (KOWD)
Sun 01:58:27 PM 41.5298 -70.7476 227° Southwest 360 414 38,000  Level FlightAware ADS-B (ESTA / AGH)
Sun 01:59:02 PM 41.4879 -70.8079 227° Southwest 359 413 38,000  Level FlightAware ADS-B
Sun 01:59:39 PM 41.4465 -70.8671 227° Southwest 359 413 38,000  Level FlightAware ADS-B
Sun 02:00:24 PM 41.3956 -70.9401 227° Southwest 360 414 38,000  Level FlightAware ADS-B
Sun 02:01:03 PM 41.3506 -71.0044 227° Southwest 360 414 38,000  Level FlightAware ADS-B
Sun 02:01:43 PM 41.3054 -71.0688 227° Southwest 360 414 38,000  Level FlightAware ADS-B
Sun 02:01:59 PM 41.3468 -71.0099 47° Northeast 356 410 38,000  Level FlightAware ADS-B (KOWD)
Sun 02:02:43 PM 41.2480 -71.1729 231° Southwest 343 395 38,000  Level FlightAware ADS-B
Sun 02:03:24 PM 41.2234 -71.2493 247° West 335 386 38,000  Level FlightAware ADS-B
Sun 02:04:03 PM 41.2022 -71.3263 250° West 336 387 38,000  Level FlightAware ADS-B
Sun 02:04:43 PM 41.1807 -71.4023 249° West 335 386 38,000  Level FlightAware ADS-B
Sun 02:05:15 PM 41.1637 -71.4633 250° West 334 384 38,000  Level FlightAware ADS-B
Sun 02:05:43 PM 41.1443 -71.5157 244° Southwest 343 395 38,000  Level FlightAware ADS-B (ESTA / AGH)
Sun 02:06:31 PM 41.1549 -71.4929 58° Northeast 357 411 38,000  Level FlightAware ADS-B (KSNC)
Sun 02:07:39 PM 41.0114 -71.6972 227° Southwest 359 413 38,000  Level FlightAware ADS-B (KSNC)
Sun 02:08:20 PM 40.9634 -71.7620 226° Southwest 359 413 38,000  Level FlightAware ADS-B (KSNC)
Sun 02:09:23 PM 40.8962 -71.8526 226° Southwest 359 413 38,000  Level FlightAware ADS-B (KSNC)
Sun 02:10:00 PM 40.8471 -71.9186 225° Southwest 360 414 38,000  Level FlightAware ADS-B (KSNC)
Sun 02:11:23 PM 40.7492 -72.0498 225° Southwest 362 417 38,000  Level FlightAware ADS-B (KSNC)
Sun 02:12:26 PM 40.6771 -72.1462 225° Southwest 362 417 38,000  Level FlightAware ADS-B (KSNC)
Sun 02:13:07 PM 40.6321 -72.2065 225° Southwest 362 417 38,000  Level FlightAware ADS-B (KSNC)
Sun 02:13:49 PM 40.5798 -72.2764 225° Southwest 362 417 38,000  Level FlightAware ADS-B (KSNC)
Sun 02:14:23 PM 40.5384 -72.3316 225° Southwest 362 417 38,000  Level FlightAware ADS-B (KSNC)
Sun 02:15:09 PM 40.4860 -72.4013 225° Southwest 363 418 38,000  Level FlightAware ADS-B (KSNC)
Sun 02:15:49 PM 40.4382 -72.4646 225° Southwest 363 418 38,000  Level FlightAware ADS-B (KSNC)
Sun 02:16:34 PM 40.3857 -72.5340 225° Southwest 364 419 38,000  Level FlightAware ADS-B (KSNC)
Sun 02:17:14 PM 40.3383 -72.5966 225° Southwest 363 418 38,000  Level FlightAware ADS-B (KWWD)
Sun 02:17:45 PM 40.3045 -72.6412 225° Southwest 363 418 38,000  Level FlightAware ADS-B (KSNC)
Sun 02:18:25 PM 40.2543 -72.7071 225° Southwest 362 417 38,000  Level FlightAware ADS-B (KSNC)
Sun 02:19:04 PM 40.2083 -72.7676 225° Southwest 361 415 38,000  Level FlightAware ADS-B (KSNC)
Sun 02:20:16 PM 40.1225 -72.8801 225° Southwest 367 422 38,000  Level FlightAware ADS-B (KSNC)
Sun 02:20:50 PM 40.0819 -72.9330 225° Southwest 369 425 38,000  Level FlightAware ADS-B
Sun 02:21:29 PM 40.0378 -72.9905 225° Southwest 372 428 38,000  Level FlightAware ADS-B
Sun 02:21:53 PM 40.0056 -73.0324 225° Southwest 368 423 38,000  Level FlightAware ADS-B (KWWD)
Sun 02:22:17 PM 39.9790 -73.0670 225° Southwest 374 430 38,000  Level FlightAware ADS-B
Sun 02:22:22 PM 39.9701 -73.0784 225° Southwest 369 425 38,000  Level FlightAware ADS-B (KWWD)
Sun 02:22:53 PM 39.9348 -73.1243 225° Southwest 376 433 38,000  Level FlightAware ADS-B (KSNC)
Sun 02:23:34 PM 39.8827 -73.1918 225° Southwest 374 430 38,000  Level FlightAware ADS-B
Sun 02:24:15 PM 39.8576 -73.2242 225° Southwest 375 432 38,000  Level FlightAware ADS-B (KSNC)
Sun 02:24:45 PM 39.7943 -73.3057 225° Southwest 375 432 38,000  Level FlightAware ADS-B
Sun 02:25:19 PM 39.7531 -73.3588 225° Southwest 376 433 38,000  Level FlightAware ADS-B (KSNC)
Sun 02:25:56 PM 39.7077 -73.4171 225° Southwest 377 434 38,000  Level FlightAware ADS-B
Sun 02:26:34 PM 39.6604 -73.4778 225° Southwest 378 435 38,000  Level FlightAware ADS-B
Sun 02:27:08 PM 39.6175 -73.5322 224° Southwest 380 437 38,000  Level FlightAware ADS-B
Sun 02:27:18 PM 39.6028 -73.5477 219° Southwest 383 441 38,000  Level FlightAware ADS-B (KWWD)
Sun 02:27:59 PM 39.5439 -73.6000 214° Southwest 390 449 38,000  Level FlightAware ADS-B (KWWD)
Sun 02:28:41 PM 39.4796 -73.6575 215° Southwest 389 448 38,000  Level FlightAware ADS-B (KWWD)
Sun 02:29:21 PM 39.4205 -73.7101 215° Southwest 389 448 38,000  Level FlightAware ADS-B (KWWD)
Sun 02:30:01 PM 39.3613 -73.7628 215° Southwest 389 448 38,000  Level FlightAware ADS-B (KSNC)
Sun 02:30:41 PM 39.3019 -73.8155 215° Southwest 390 449 38,000  Level FlightAware ADS-B (KWWD)
Sun 02:31:22 PM 39.2418 -73.8690 215° Southwest 390 449 38,000  Level FlightAware ADS-B (KWWD)
Sun 02:32:01 PM 39.1846 -73.9196 214° Southwest 391 450 38,000  Level FlightAware ADS-B (KWWD)
Sun 02:32:41 PM 39.1240 -73.9732 214° Southwest 391 450 38,000  Level FlightAware ADS-B (KWWD)
Sun 02:33:20 PM 39.0665 -74.0239 214° Southwest 391 450 38,000  Level FlightAware ADS-B (KSNC)
Sun 02:34:01 PM 39.0051 -74.0780 214° Southwest 392 451 38,000  Level FlightAware ADS-B (KWWD)
Sun 02:34:41 PM 38.9452 -74.1308 214° Southwest 393 452 38,000  Level FlightAware ADS-B (KWWD)
Sun 02:35:20 PM 38.8862 -74.1824 214° Southwest 393 452 38,000  Level FlightAware ADS-B (KWWD)
Sun 02:36:01 PM 38.8245 -74.2364 214° Southwest 394 453 38,000  Level FlightAware ADS-B (KWWD)
Sun 02:36:42 PM 38.7631 -74.2900 214° Southwest 394 453 38,000  Level FlightAware ADS-B (KWWD)
Sun 02:37:23 PM 38.7019 -74.3433 214° Southwest 393 452 38,000  Level FlightAware ADS-B (KWWD)
Sun 02:38:00 PM 38.6477 -74.3903 214° Southwest 392 451 38,000  Level FlightAware ADS-B (KWWD)
Sun 02:38:42 PM 38.5841 -74.4455 214° Southwest 389 448 38,000  Level FlightAware ADS-B (KWWD)
Sun 02:39:22 PM 38.5238 -74.4977 214° Southwest 389 448 38,000  Level FlightAware ADS-B (KWWD)
Sun 02:39:58 PM 38.4733 -74.5414 214° Southwest 389 448 38,000  Level FlightAware ADS-B (EGBO)
Sun 02:40:37 PM 38.4168 -74.5902 214° Southwest 390 449 38,000  Level FlightAware ADS-B (EGBO)
Sun 02:41:23 PM 38.3437 -74.6532 214° Southwest 392 451 38,000  Level FlightAware ADS-B (KWWD)
Sun 02:42:02 PM 38.2850 -74.7036 214° Southwest 393 452 38,000  Level FlightAware ADS-B (KWWD)
Sun 02:42:43 PM 38.2239 -74.7559 214° Southwest 393 452 38,000  Level FlightAware ADS-B (KWWD)
Sun 02:43:24 PM 38.1617 -74.8091 214° Southwest 392 451 38,000  Level FlightAware ADS-B (KWWD)
Sun 02:43:58 PM 38.1146 -74.8494 214° Southwest 393 452 38,000  Level FlightAware ADS-B (EGAA / BFS)
Sun 02:44:43 PM 38.0428 -74.9106 214° Southwest 393 452 38,000  Level FlightAware ADS-B (KWWD)
Sun 02:45:23 PM 37.9816 -74.9626 214° Southwest 393 452 38,000  Level FlightAware ADS-B (KWWD)
Sun 02:45:58 PM 37.9387 -74.9989 214° Southwest 394 453 38,000  Level FlightAware ADS-B (EGAA / BFS)
Sun 02:46:31 PM 37.8908 -75.0396 214° Southwest 395 455 38,000  Level FlightAware ADS-B (EGAA / BFS)
Sun 02:47:22 PM 37.8015 -75.1150 214° Southwest 391 450 38,000  Level FlightAware ADS-B (KWWD)
Sun 02:47:54 PM 37.7546 -75.1546 214° Southwest 399 459 38,000  Level FlightAware ADS-B (EGAA / BFS)
Sun 02:48:36 PM 37.6897 -75.2093 214° Southwest 399 459 38,000  Level FlightAware ADS-B (EGAA / BFS)
Sun 02:49:16 PM 37.6281 -75.2610 214° Southwest 399 459 38,000  Level FlightAware ADS-B (EGAA / BFS)
Sun 02:50:05 PM 37.5533 -75.3238 214° Southwest 398 458 38,000  Level FlightAware ADS-B (EGAA / BFS)
Sun 02:50:44 PM 37.4954 -75.3722 214° Southwest 397 457 38,000  Level FlightAware ADS-B (EGAA / BFS)
Sun 02:51:23 PM 37.4386 -75.4196 214° Southwest 397 457 38,000  Level FlightAware ADS-B (EGAA / BFS)
Sun 02:52:01 PM 37.3779 -75.4703 214° Southwest 397 457 38,000  Level FlightAware ADS-B (EGAA / BFS)
Sun 02:52:34 PM 37.3242 -75.5149 213° Southwest 398 458 38,000  Level FlightAware ADS-B (EGAA / BFS)
Sun 02:53:15 PM 37.2639 -75.5650 213° Southwest 398 458 38,000  Level FlightAware ADS-B (EGAA / BFS)
Sun 02:54:03 PM 37.1869 -75.6287 213° Southwest 392 451 38,000  Level FlightAware ADS-B (KWWD)
Sun 02:54:45 PM 37.1221 -75.6823 213° Southwest 392 451 38,000  Level FlightAware ADS-B (KWWD)
Sun 02:55:01 PM 37.1011 -75.6996 213° Southwest 398 458 38,000  Level FlightAware ADS-B (KNTU)
Sun 02:56:00 PM 37.0076 -75.7766 213° Southwest 393 452 38,000  Level FlightAware ADS-B (KWWD)
Sun 02:56:32 PM 36.9583 -75.8172 213° Southwest 393 452 38,000  Level FlightAware ADS-B (KWWD)
Sun 02:57:10 PM 36.9034 -75.8623 213° Southwest 400 460 38,000  Level FlightAware ADS-B (KNTU)
Sun 02:57:49 PM 36.8394 -75.9146 213° Southwest 400 460 38,000  Level FlightAware ADS-B (KNTU)
Sun 02:58:30 PM 36.7754 -75.9669 213° Southwest 400 460 38,000  Level FlightAware ADS-B (KNTU)
Sun 02:59:12 PM 36.7137 -76.0173 213° Southwest 399 459 38,000  Level FlightAware ADS-B (KNTU)
Sun 02:59:52 PM 36.6501 -76.0691 213° Southwest 399 459 38,000  Level FlightAware ADS-B (KNTU)
Sun 03:00:31 PM 36.5880 -76.1196 213° Southwest 402 463 38,000  Level FlightAware ADS-B (KNTU)
Sun 03:01:10 PM 36.5285 -76.1678 213° Southwest 403 464 38,000  Level FlightAware ADS-B (KNTU)
Sun 03:01:47 PM 36.4703 -76.2150 213° Southwest 403 464 38,000  Level FlightAware ADS-B (KWWD)
Sun 03:02:19 PM 36.4201 -76.2555 213° Southwest 401 461 38,000  Level FlightAware ADS-B (KWWD)
Sun 03:02:51 PM 36.3707 -76.2954 213° Southwest 401 461 38,000  Level FlightAware ADS-B (KNTU)
Sun 03:03:30 PM 36.3100 -76.3442 213° Southwest 401 461 38,000  Level FlightAware ADS-B (KNTU)
Sun 03:04:12 PM 36.2458 -76.3959 213° Southwest 401 461 38,000  Level FlightAware ADS-B (KNTU)
Sun 03:04:42 PM 36.1999 -76.4327 213° Southwest 402 463 38,000  Level FlightAware ADS-B (KNTU)
Sun 03:06:36 PM 36.0732 -76.5341 213° Southwest 403 464 38,000  Level FlightAware ADS-B (KNTU)
Sun 03:07:49 PM 35.9133 -76.6589 213° Southwest 395 455 38,000  Level Washington Center
Sun 03:08:47 PM 35.8208 -76.7344 214° Southwest 395 455 38,000  Level Washington Center
Sun 03:09:47 PM 35.7264 -76.8100 213° Southwest 400 460 38,000  Level Washington Center
Sun 03:10:48 PM 35.6506 -76.8650 211° Southwest 400 460 38,000  Level Washington Center
Sun 03:11:48 PM 35.5433 -76.9553 214° Southwest 395 455 38,000  Level Washington Center
Sun 03:12:47 PM 35.4464 -77.0300 212° Southwest 395 455 38,000  Level Washington Center
Sun 03:13:48 PM 35.3517 -77.1022 212° Southwest 401 461 38,000  Level Washington Center
Sun 03:14:48 PM 35.2567 -77.1767 213° Southwest 401 461 38,000  Level Washington Center
Sun 03:15:49 PM 35.1619 -77.2511 213° Southwest 406 467 38,000  Level Washington Center
Sun 03:16:47 PM 35.0689 -77.3253 213° Southwest 406 467 38,000  Level Washington Center
Sun 03:17:48 PM 34.9719 -77.3967 211° Southwest 406 467 38,000  Level Washington Center
Sun 03:18:49 PM 34.8789 -77.4706 213° Southwest 412 474 38,000  Level Washington Center
Sun 03:19:49 PM 34.7858 -77.5469 214° Southwest 412 474 38,000  Level Washington Center
Sun 03:20:47 PM 34.6867 -77.6203 211° Southwest 418 481 38,000  Level Washington Center
Sun 03:22:48 PM 34.4964 -77.7692 211° Southwest 417 480 38,000  Level Washington Center
Sun 03:23:49 PM 34.4011 -77.8397 211° Southwest 417 480 38,000  Level Washington Center
Sun 03:24:49 PM 34.2917 -77.8919 202° Southwest 417 480 38,000  Level Washington Center
Sun 03:27:00 PM 34.0425 -77.9631 193° South 438 504 38,000  Level Jacksonville Center
Sun 03:28:00 PM 33.9250 -77.9997 195° South 438 504 38,000  Level Jacksonville Center
Sun 03:29:00 PM 33.8075 -78.0314 193° South 438 504 38,000  Level Jacksonville Center
Sun 03:30:00 PM 33.6897 -78.0628 193° South 438 504 38,000  Level Jacksonville Center
Sun 03:31:00 PM 33.5703 -78.1017 195° South 443 510 38,000  Level Jacksonville Center
Sun 03:31:59 PM 33.4525 -78.1356 194° South 443 510 38,000  Level Jacksonville Center
Sun 03:33:00 PM 33.3328 -78.1667 192° South 443 510 38,000  Level Jacksonville Center
Sun 03:34:00 PM 33.2150 -78.2003 193° South 448 516 38,000  Level Jacksonville Center
Sun 03:35:00 PM 33.0972 -78.2361 194° South 448 516 38,000  Level Jacksonville Center
Sun 03:35:59 PM 32.9775 -78.2697 193° South 448 516 38,000  Level Jacksonville Center
Sun 03:36:59 PM 32.8575 -78.3006 192° South 448 516 38,000  Level Jacksonville Center
Sun 03:37:59 PM 32.7419 -78.3336 194° South 448 516 38,000  Level Jacksonville Center
Sun 03:39:00 PM 32.6222 -78.3669 193° South 448 516 38,000  Level Jacksonville Center
Sun 03:40:00 PM 32.5022 -78.4022 194° South 448 516 38,000  Level Jacksonville Center
Sun 03:40:59 PM 32.3803 -78.4306 191° South 448 516 38,000  Level Jacksonville Center
Sun 03:42:00 PM 32.2647 -78.4706 196° South 448 516 38,000  Level Jacksonville Center
Sun 03:43:00 PM 32.1428 -78.5058 194° South 448 516 38,000  Level Jacksonville Center
Sun 03:44:00 PM 32.0250 -78.5408 194° South 448 516 38,000  Level Jacksonville Center
Sun 03:45:00 PM 31.9053 -78.5783 195° South 448 516 38,000  Level Jacksonville Center
Sun 03:46:00 PM 31.7872 -78.6108 193° South 448 516 38,000  Level Jacksonville Center
Sun 03:47:00 PM 31.6675 -78.6456 194° South 448 516 38,000  Level Jacksonville Center
Sun 03:48:00 PM 31.5453 -78.6803 194° South 448 516 38,000  Level Jacksonville Center
Sun 03:49:00 PM 31.4236 -78.7175 195° South 448 516 38,000  Level Jacksonville Center
Sun 03:50:00 PM 31.3033 -78.7497 193° South 453 521 38,000  Level Jacksonville Center
Sun 03:51:00 PM 31.1833 -78.7817 193° South 447 514 38,000  Level Jacksonville Center
Sun 03:52:00 PM 31.0633 -78.8158 194° South 447 514 38,000  Level Jacksonville Center
Sun 03:53:00 PM 30.9331 -78.8531 194° South 446 513 38,000  Level Jacksonville Center
Sun 03:54:00 PM 30.8111 -78.8872 194° South 452 520 38,000  Level Jacksonville Center
Sun 03:55:44 PM 30.6069 -78.9444 194° South 448 516 38,000  Level Miami Center
Sun 03:56:44 PM 30.4856 -78.9758 193° South 448 516 38,000  Level Miami Center
Sun 03:57:44 PM 30.3661 -79.0192 197° South 448 516 38,000  Level Miami Center
Sun 03:58:44 PM 30.2467 -79.0647 198° South 453 521 38,000  Level Miami Center
Sun 03:59:44 PM 30.1353 -79.1103 199° South 447 514 38,000  Level Miami Center
Sun 04:00:44 PM 30.0389 -79.1442 197° South 447 514 38,000  Level Miami Center
Sun 04:01:44 PM 29.9044 -79.2036 201° Southwest 442 509 38,000  Level Miami Center
Sun 04:02:44 PM 29.7911 -79.2514 200° South 442 509 38,000  Level Miami Center
Sun 04:03:44 PM 29.6758 -79.2942 198° South 442 509 38,000  Level Miami Center
Sun 04:04:44 PM 29.5561 -79.3344 196° South 448 516 38,000  Level Miami Center
Sun 04:05:44 PM 29.4428 -79.3794 199° South 442 509 38,000  Level Miami Center
Sun 04:11:07 PM 28.8180 -79.6113 199° South 436 502 38,000  Level FlightAware ADS-B
Sun 04:12:01 PM 28.7361 -79.6420 198° South 436 502 38,000  Level FlightAware ADS-B
Sun 04:12:52 PM 28.6173 -79.6867 198° South 437 503 38,000  Level FlightAware ADS-B
Sun 04:13:59 PM 28.4864 -79.7357 198° South 438 504 38,000  Level FlightAware ADS-B
Sun 04:14:43 PM 28.4031 -79.7667 198° South 437 503 38,000  Level FlightAware ADS-B
Sun 04:15:24 PM 28.3229 -79.7964 198° South 435 501 38,000  Level FlightAware ADS-B
Sun 04:16:05 PM 28.2458 -79.8250 198° South 435 501 38,000  Level FlightAware ADS-B
Sun 04:16:44 PM 28.1716 -79.8527 198° South 435 501 38,000  Level FlightAware ADS-B
Sun 04:17:23 PM 28.1005 -79.8791 198° South 436 502 38,000  Level FlightAware ADS-B
Sun 04:18:24 PM 27.9838 -79.9224 198° South 437 503 38,000  Level FlightAware ADS-B
Sun 04:19:05 PM 27.9032 -79.9520 198° South 437 503 38,000  Level FlightAware ADS-B
Sun 04:19:45 PM 27.8238 -79.9812 198° South 437 503 38,000  Level FlightAware ADS-B
Sun 04:20:25 PM 27.7452 -80.0102 198° South 439 505 38,000  Level FlightAware ADS-B
Sun 04:21:06 PM 27.6694 -80.0381 198° South 440 506 38,000  Level FlightAware ADS-B
Sun 04:21:44 PM 27.5929 -80.0661 198° South 441 507 38,000  Level FlightAware ADS-B
Sun 04:22:23 PM 27.5179 -80.0936 198° South 440 506 38,000  Level FlightAware ADS-B
Sun 04:23:05 PM 27.4389 -80.1226 198° South 440 506 38,000  Level FlightAware ADS-B
Sun 04:23:51 PM 27.3473 -80.1561 198° South 441 507 38,000  Level FlightAware ADS-B
Sun 04:24:36 PM 27.2602 -80.1878 198° South 442 509 38,000  Level FlightAware ADS-B
Sun 04:25:16 PM 27.1902 -80.2134 198° South 443 510 38,000  Level FlightAware ADS-B
Sun 04:26:14 PM 27.0694 -80.2573 198° South 442 509 38,000  Level FlightAware ADS-B
Sun 04:26:50 PM 27.0087 -80.2793 198° South 442 509 38,000  Level FlightAware ADS-B
Sun 04:28:36 PM 26.7982 -80.3555 198° South 442 509 38,000  Level FlightAware ADS-B
Sun 04:29:09 PM 26.7404 -80.3763 198° South 443 510 38,000  Level FlightAware ADS-B
Sun 04:32:54 PM 26.2977 -80.5354 198° South 447 514 38,000  Level FlightAware ADS-B
Sun 04:33:44 PM 26.1983 -80.5706 198° South 442 509 38,000  Level Miami Center
Sun 04:34:44 PM 26.0803 -80.6156 199° South 442 509 38,000  Level Miami Center
Sun 04:35:44 PM 25.9619 -80.6581 198° South 447 514 38,000  Level Miami Center
Sun 04:36:44 PM 25.8439 -80.7028 199° South 447 514 38,000  Level Miami Center
Sun 04:37:44 PM 25.7258 -80.7450 198° South 447 514 38,000  Level Miami Center
Sun 04:38:44 PM 25.6075 -80.7944 201° Southwest 452 520 38,000  Level Miami Center
Sun 04:39:44 PM 25.5194 -80.8858 223° Southwest 437 503 38,000  Level Miami Center
Sun 04:40:44 PM 25.4356 -80.9772 225° Southwest 437 503 38,000  Level Miami Center
Sun 04:41:44 PM 25.3492 -81.0708 224° Southwest 437 503 38,000 -300 Level Miami Center
Sun 04:42:44 PM 25.2631 -81.1667 225° Southwest 437 503 37,400 -800 Descending Miami Center
Sun 04:43:44 PM 25.1789 -81.2600 225° Southwest 437 503 36,400 -1,000 Descending Miami Center
Sun 04:44:44 PM 25.0906 -81.3508 223° Southwest 443 510 35,400 -1,150 Descending Miami Center
Sun 04:45:44 PM 25.0106 -81.4397 225° Southwest 443 510 34,100 -1,250 Descending Miami Center
Sun 04:46:44 PM 24.9217 -81.5372 225° Southwest 449 517 32,900 -1,100 Descending Miami Center
Sun 04:47:44 PM 24.8375 -81.6278 224° Southwest 443 510 31,900 -1,000 Descending Miami Center
Sun 04:48:44 PM 24.7506 -81.7272 226° Southwest 448 516 30,900 -1,050 Descending Miami Center
Sun 04:49:44 PM 24.6508 -81.8375 225° Southwest 459 528 29,800 -1,000 Descending Miami Center
Sun 04:50:44 PM 24.5689 -81.9164 221° Southwest 454 522 28,900 -950 Descending Miami Center
Sun 04:51:44 PM 24.4822 -82.0067 223° Southwest 442 509 27,900 -1,000 Descending Miami Center
Sun 04:52:44 PM 24.3975 -82.0989 225° Southwest 437 503 26,900 -1,000 Descending Miami Center
Sun 04:53:44 PM 24.3172 -82.1911 226° Southwest 432 497 25,900 -1,000 Descending Miami Center
Sun 04:54:44 PM 24.2283 -82.2783 222° Southwest 426 490 24,900 -1,100 Descending Miami Center
Sun 04:55:44 PM 24.1436 -82.3703 225° Southwest 426 490 23,700 -1,250 Descending Miami Center
Sun 04:56:44 PM 24.0442 -82.4592 219° Southwest 426 490 22,400 -1,300 Descending Miami Center
Sun 04:58:00 PM 23.9283 -82.5064 173° South  Level FlightAware Approximate
Sun 05:05:00 PM 23.1073 -82.4115 170° South  Level FlightAware Approximate
Sun 05:06:00 PM 22.9902 -82.4000 180° South  Level FlightAware Approximate
Sun 05:07:00 PM 22.9891 -82.4091 180° South  Level Estimated
Sun 05:08:00 PM 22.9891 -82.4091 180° South  Level Estimated
Sun 05:09:00 PM 22.9891 -82.4091 180° South  Level Estimated
Sun 05:10:00 PM 22.9891 -82.4091 180° South  Level Estimated
Sun 05:11:00 PM 22.9891 -82.4091 180° South  Level Estimated
Sun 05:12:00 PM 22.9891 -82.4091 180° South  Level Estimated
Sun 05:13:00 PM 22.9891 -82.4091 180° South  Level Estimated
Sun 05:14:00 PM 22.9891 -82.4091 180° South  Level Estimated
Sun 05:15:00 PM 22.9891 -82.4091 180° South  Level Estimated
Sun 05:16:00 PM 22.9891 -82.4091 180° South  Level Estimated
Sun 05:17:00 PM 22.9891 -82.4091 180° South  Level Estimated
Sun 05:18:00 PM 22.9891 -82.4091 180° South  Level Estimated
Sun 05:19:00 PM 22.9891 -82.4091 180° South  Level Estimated
Sun 05:20:00 PM 22.9891 -82.4091 180° South  Level Estimated
Sun 05:21:00 PM 22.9891 -82.4091 180° South  Level Estimated
Sun 05:22:00 PM 22.9891 -82.4091 180° South  Level Estimated
Sun 05:23:00 PM 22.9891 -82.4091 180° South  Level Estimated
Sun 05:24:00 PM 22.9891 -82.4091 180° South  Level Estimated
Sun 05:25:00 PM 22.9891 -82.4091 180° South  Level Estimated
Sun 05:26:00 PM 22.9891 -82.4091 180° South  Level Estimated
Sun 05:27:00 PM 22.9891 -82.4091 180° South  Level Estimated
Sun 05:28:00 PM 22.9891 -82.4091 180° South  Level Estimated

Login

Don't have an account? Register now (free) for customized features, flight alerts, and more!